KBED/BED METAR and TAF weather

Enter ICAO airport designator
Station Type Date Time Source
KBED METAR 2018/12/11 00:56 UTC NOAA

KBED 110056Z 33003KT 10SM CLR M04/M12 A3015 RMK AO2 SLP228 T10441117


Station Type Date Time Source
KBED Decoded METAR 2018/12/11 00:56 UTC NOAA

BEDFORD HANSCOM FIELD, MA, United States (KBED) 42-28N 071-18W 50M
Dec 10, 2018 - 07:56 PM EST / 2018.12.11 0056 UTC
Wind: from the NNW (330 degrees) at 3 MPH (3 KT):0
Visibility: 10 mile(s):0
Sky conditions: clear
Temperature: 24.1 F (-4.4 C)
Dew Point: 10.9 F (-11.7 C)
Relative Humidity: 56%
Pressure (altimeter): 30.15 in. Hg (1020 hPa)
ob: KBED 110056Z 33003KT 10SM CLR M04/M12 A3015 RMK AO2 SLP228 T10441117
cycle: 1

Station Type Date Time Source
KBED TAF 2018/12/10 18:36 UTC NOAA

TAF KBED 101732Z 1018/1118 34007KT P6SM FEW250
FM110300 VRB03KT P6SM SKC
FM111600 24003KT P6SM FEW250


Example: see airport list